createdAt,value
2018-12-17T00:01:59.603Z,100433.14
2018-12-17T00:04:30.415Z,100428.72
2018-12-17T00:07:00.411Z,100431.23
2018-12-17T00:09:30.129Z,100428.62
2018-12-17T00:12:00.305Z,100435.45
2018-12-17T00:14:30.494Z,100433.63
2018-12-17T00:17:00.551Z,100438.11
2018-12-17T00:19:30.529Z,100442.78
2018-12-17T00:22:00.319Z,100444.31
2018-12-17T00:24:30.335Z,100449.08
2018-12-17T00:27:00.150Z,100445.70
2018-12-17T00:29:30.248Z,100446.56
2018-12-17T00:32:00.583Z,100443.72
2018-12-17T00:34:30.376Z,100454.36
2018-12-17T00:37:00.243Z,100451.77
2018-12-17T00:39:30.868Z,100450.84
2018-12-17T00:42:01.863Z,100456.05
2018-12-17T00:44:31.911Z,100454.83
2018-12-17T00:47:02.217Z,100462.78
2018-12-17T00:49:32.112Z,100460.13
2018-12-17T00:52:02.432Z,100465.86
2018-12-17T00:54:32.319Z,100464.55
2018-12-17T00:57:02.579Z,100338.36
2018-12-17T00:59:32.764Z,100466.23
2018-12-17T01:02:02.644Z,100467.54
2018-12-17T01:04:32.589Z,100474.70
2018-12-17T01:07:02.411Z,100470.26
2018-12-17T01:09:32.350Z,100475.14
2018-12-17T01:12:02.447Z,100468.19
2018-12-17T01:14:32.507Z,100457.91
2018-12-17T01:17:02.317Z,100466.50
2018-12-17T01:19:32.414Z,100460.06
2018-12-17T01:22:02.568Z,100459.35
2018-12-17T01:24:32.266Z,100458.84
2018-12-17T01:27:02.181Z,100455.59
2018-12-17T01:29:32.355Z,100473.63
2018-12-17T01:32:05.920Z,100468.56
2018-12-17T01:34:36.155Z,100462.23
2018-12-17T01:37:06.493Z,100464.22
2018-12-17T01:39:37.599Z,100471.02
2018-12-17T01:42:07.364Z,100471.02
2018-12-17T01:44:37.322Z,100477.99
2018-12-17T01:47:07.505Z,100475.02
2018-12-17T01:49:37.668Z,100480.28
2018-12-17T01:52:07.469Z,100476.84
2018-12-17T01:54:37.229Z,100469.95
2018-12-17T01:57:07.513Z,100477.15
2018-12-17T01:59:37.640Z,100472.47
2018-12-17T02:02:07.508Z,100476.49
2018-12-17T02:04:37.573Z,100487.91
2018-12-17T02:07:07.343Z,100487.70
2018-12-17T02:09:37.255Z,100486.41
2018-12-17T02:12:08.691Z,100489.39
2018-12-17T02:14:38.639Z,100486.78
2018-12-17T02:17:08.586Z,100487.31
2018-12-17T02:19:38.474Z,100470.06
2018-12-17T02:22:08.310Z,100486.52
2018-12-17T02:24:38.255Z,100485.55
2018-12-17T02:27:08.324Z,100485.90
2018-12-17T02:29:39.611Z,100488.30
2018-12-17T02:32:09.527Z,100489.13
2018-12-17T02:34:39.348Z,100493.83
2018-12-17T02:37:09.123Z,100494.27
2018-12-17T02:39:39.293Z,100499.53
2018-12-17T02:42:09.180Z,100495.39
2018-12-17T02:44:39.288Z,100502.90
2018-12-17T02:49:50.480Z,100504.87
2018-12-17T02:52:20.377Z,100508.52
2018-12-17T02:54:50.297Z,100500.00
2018-12-17T02:57:20.176Z,100495.89
2018-12-17T02:59:50.449Z,100500.23
2018-12-17T03:02:20.705Z,100496.81
2018-12-17T03:04:50.794Z,100497.31
2018-12-17T03:07:20.984Z,100498.34
2018-12-17T03:09:51.180Z,100502.16
2018-12-17T03:12:21.254Z,100500.41
2018-12-17T03:14:51.748Z,100505.47
2018-12-17T03:17:21.778Z,100500.11
2018-12-17T03:19:59.262Z,100498.97
2018-12-17T03:22:29.512Z,100501.72
2018-12-17T03:24:59.492Z,100494.73
2018-12-17T03:27:29.224Z,100501.47
2018-12-17T03:29:59.091Z,100496.27
2018-12-17T03:32:29.273Z,100490.91
2018-12-17T03:34:59.196Z,100495.59
2018-12-17T03:37:29.513Z,100492.06
2018-12-17T03:39:59.300Z,100500.73
2018-12-17T03:42:29.582Z,100500.20
2018-12-17T03:47:41.993Z,100496.58
2018-12-17T03:50:12.244Z,100489.10
2018-12-17T03:52:42.709Z,100497.34
2018-12-17T03:55:12.709Z,100495.98
2018-12-17T03:57:42.665Z,100502.50
2018-12-17T04:00:12.481Z,100498.59
2018-12-17T04:02:42.478Z,100503.33
2018-12-17T04:05:12.682Z,100497.14
2018-12-17T04:07:42.569Z,100503.27
2018-12-17T04:10:13.623Z,100506.94
2018-12-17T04:12:43.873Z,100509.59
2018-12-17T04:15:14.133Z,100511.22
2018-12-17T04:17:44.194Z,100514.59
2018-12-17T04:20:14.381Z,100508.23
2018-12-17T04:22:44.373Z,100518.17
2018-12-17T04:25:14.565Z,100522.17
2018-12-17T04:27:44.337Z,100529.06
2018-12-17T04:30:14.158Z,100527.13
2018-12-17T04:32:44.391Z,100522.63
2018-12-17T04:35:14.418Z,100527.84
2018-12-17T04:37:44.578Z,100522.31
2018-12-17T04:40:14.432Z,100527.69
2018-12-17T04:42:44.864Z,100531.13
2018-12-17T04:45:15.084Z,100525.59
2018-12-17T04:47:45.151Z,100524.83
2018-12-17T04:50:15.759Z,100530.52
2018-12-17T04:52:45.545Z,100529.20
2018-12-17T04:55:15.473Z,100534.41
2018-12-17T04:57:45.645Z,100531.28
2018-12-17T05:00:15.798Z,100540.92
2018-12-17T05:02:45.862Z,100543.82
2018-12-17T05:05:15.660Z,100539.86
2018-12-17T05:07:45.476Z,100549.35
2018-12-17T05:10:15.489Z,100547.12
2018-12-17T05:12:45.644Z,100555.33
2018-12-17T05:15:15.684Z,100549.26
2018-12-17T05:17:45.489Z,100547.95
2018-12-17T05:20:15.368Z,100550.94
2018-12-17T05:22:45.172Z,100543.52
2018-12-17T05:25:15.423Z,100539.17
2018-12-17T05:27:45.638Z,100536.03
2018-12-17T05:30:15.914Z,100547.22
2018-12-17T05:32:46.115Z,100545.83
2018-12-17T05:35:16.628Z,100554.88
2018-12-17T05:37:46.335Z,100559.16
2018-12-17T05:40:16.677Z,100561.38
2018-12-17T05:42:46.548Z,100568.66
2018-12-17T05:45:16.372Z,100565.91
2018-12-17T05:47:46.730Z,100568.03
2018-12-17T05:50:16.657Z,100570.58
2018-12-17T05:52:46.577Z,100570.19
2018-12-17T05:55:16.620Z,100581.44
2018-12-17T05:57:46.623Z,100586.20
2018-12-17T06:00:16.514Z,100589.19
2018-12-17T06:02:46.458Z,100593.48
2018-12-17T06:05:17.650Z,100595.16
2018-12-17T06:07:47.435Z,100602.88
2018-12-17T06:10:17.587Z,100598.15
2018-12-17T06:12:47.538Z,100612.47
2018-12-17T06:15:17.395Z,100617.20
2018-12-17T06:17:47.241Z,100612.86
2018-12-17T06:20:17.463Z,100617.14
2018-12-17T06:22:47.385Z,100626.17
2018-12-17T06:25:17.824Z,100627.41
2018-12-17T06:27:56.890Z,100629.11
2018-12-17T06:30:26.808Z,100636.00
2018-12-17T06:35:39.420Z,100634.70
2018-12-17T06:38:09.382Z,100640.20
2018-12-17T06:40:39.514Z,100647.72
2018-12-17T06:43:09.390Z,100647.19
2018-12-17T06:45:39.655Z,100649.70
2018-12-17T06:48:16.837Z,100648.25
2018-12-17T06:50:42.701Z,100648.72
2018-12-17T06:53:12.592Z,100656.92
2018-12-17T06:55:42.906Z,100655.08
2018-12-17T06:58:13.693Z,100655.08
2018-12-17T07:00:43.484Z,100665.50
2018-12-17T07:03:13.410Z,100670.56
2018-12-17T07:05:43.232Z,100680.98
2018-12-17T07:08:19.047Z,100676.06
2018-12-17T07:10:49.611Z,100686.48
2018-12-17T07:13:19.390Z,100686.73
2018-12-17T07:15:49.258Z,100677.52
2018-12-17T07:18:19.445Z,100699.98
2018-12-17T07:20:49.257Z,100700.81
2018-12-17T07:23:19.698Z,100695.60
2018-12-17T07:25:49.419Z,100712.86
2018-12-17T07:28:20.581Z,100710.27
2018-12-17T07:30:50.341Z,100712.72
2018-12-17T07:33:20.360Z,100719.23
2018-12-17T07:35:50.561Z,100728.73
2018-12-17T07:38:20.405Z,100727.96
2018-12-17T07:40:50.654Z,100730.09
2018-12-17T07:43:20.559Z,100732.64
2018-12-17T07:45:50.440Z,100744.66
2018-12-17T07:48:20.333Z,100744.22
2018-12-17T07:50:50.144Z,100743.69
2018-12-17T07:53:20.255Z,100743.22
2018-12-17T07:55:50.419Z,100745.55
2018-12-17T07:58:20.482Z,100750.00
2018-12-17T08:00:51.133Z,100748.60
2018-12-17T08:03:21.196Z,100752.90
2018-12-17T08:05:51.263Z,100762.02
2018-12-17T08:08:21.374Z,100754.59
2018-12-17T08:10:51.365Z,100759.65
2018-12-17T08:13:22.189Z,100762.50
2018-12-17T08:15:52.217Z,100763.89
2018-12-17T08:18:24.140Z,100769.02
2018-12-17T08:20:54.165Z,100768.56
2018-12-17T08:23:24.450Z,100773.25
2018-12-17T08:25:54.228Z,100769.25
2018-12-17T08:28:24.417Z,100776.63
2018-12-17T08:30:54.192Z,100780.98
2018-12-17T08:33:24.516Z,100747.66
2018-12-17T08:35:54.708Z,100791.02
2018-12-17T08:38:24.442Z,100793.09
2018-12-17T08:40:54.224Z,100791.34
2018-12-17T08:43:24.284Z,100793.03
2018-12-17T08:45:54.421Z,100795.94
2018-12-17T08:48:24.464Z,100794.48
2018-12-17T08:50:54.499Z,100794.81
2018-12-17T08:53:24.286Z,100802.16
2018-12-17T08:55:54.403Z,100804.38
2018-12-17T08:58:24.827Z,100804.23
2018-12-17T09:00:54.847Z,100803.79
2018-12-17T09:03:24.605Z,100807.22
2018-12-17T09:05:54.488Z,100820.11
2018-12-17T09:08:24.319Z,100813.92
2018-12-17T09:10:54.233Z,100814.75
2018-12-17T09:13:24.242Z,100814.93
2018-12-17T09:15:54.040Z,100809.23
2018-12-17T09:18:24.266Z,100806.95
2018-12-17T09:20:54.469Z,100811.94
2018-12-17T09:23:24.555Z,100812.70
2018-12-17T09:25:54.409Z,100814.62
2018-12-17T09:28:24.187Z,100810.03
2018-12-17T09:30:54.495Z,100812.87
2018-12-17T09:33:24.623Z,100812.27
2018-12-17T09:35:54.660Z,100817.78
2018-12-17T09:38:24.537Z,100817.25
2018-12-17T09:40:54.303Z,100817.63
2018-12-17T09:43:24.588Z,100812.80
2018-12-17T09:45:54.580Z,100810.42
2018-12-17T09:48:24.460Z,100814.72
2018-12-17T09:50:54.420Z,100805.14
2018-12-17T09:53:24.784Z,100821.17
2018-12-17T09:55:55.094Z,100816.41
2018-12-17T09:58:25.500Z,100815.48
2018-12-17T10:00:55.373Z,100818.41
2018-12-17T10:03:25.108Z,100820.42
2018-12-17T10:05:55.067Z,100812.45
2018-12-17T10:08:25.122Z,100820.12
2018-12-17T10:10:55.181Z,100814.13
2018-12-17T10:13:25.447Z,100811.14
2018-12-17T10:15:56.441Z,100812.29
2018-12-17T10:18:26.374Z,100585.97
2018-12-17T10:20:56.155Z,100817.26
2018-12-17T10:23:26.306Z,100818.02
2018-12-17T10:25:56.163Z,100817.42
2018-12-17T10:28:26.229Z,100820.27
2018-12-17T10:30:56.375Z,100827.84
2018-12-17T10:33:26.212Z,100816.86
2018-12-17T10:35:56.306Z,100819.56
2018-12-17T10:38:26.176Z,100822.46
2018-12-17T10:40:56.365Z,100823.55
2018-12-17T10:43:26.147Z,100822.91
2018-12-17T10:45:56.295Z,100829.38
2018-12-17T10:48:26.513Z,100822.31
2018-12-17T10:50:56.285Z,100816.93
2018-12-17T10:53:26.227Z,100815.47
2018-12-17T10:55:56.373Z,100818.84
2018-12-17T10:58:26.451Z,100818.74
2018-12-17T11:01:01.577Z,100824.28
2018-12-17T11:03:35.597Z,100828.20
2018-12-17T11:08:55.886Z,100829.50
2018-12-17T11:11:26.381Z,100825.20
2018-12-17T11:13:56.853Z,100832.02
2018-12-17T11:16:26.680Z,100825.20
2018-12-17T11:18:56.447Z,100830.27
2018-12-17T11:21:27.584Z,100823.20
2018-12-17T11:23:57.352Z,100818.73
2018-12-17T11:26:27.309Z,100820.27
2018-12-17T11:28:57.344Z,100817.55
2018-12-17T11:31:27.221Z,100821.25
2018-12-17T11:33:57.458Z,100828.55
2018-12-17T11:36:27.448Z,100819.40
2018-12-17T11:38:57.327Z,100829.20
2018-12-17T11:41:36.055Z,100822.23
2018-12-17T11:44:06.362Z,100824.75
2018-12-17T11:46:36.094Z,100751.91
2018-12-17T11:49:06.149Z,100828.12
2018-12-17T11:51:36.305Z,100830.28
2018-12-17T11:54:06.519Z,100761.33
2018-12-17T11:56:49.952Z,100833.87
2018-12-17T11:59:20.069Z,100838.39
2018-12-17T12:01:50.246Z,100840.30
2018-12-17T12:04:20.319Z,100836.70
2018-12-17T12:06:50.488Z,100838.28
2018-12-17T12:09:24.503Z,100836.98
2018-12-17T12:11:54.535Z,100836.15
2018-12-17T12:14:24.742Z,100843.99
2018-12-17T12:16:54.488Z,100847.15
2018-12-17T12:19:24.605Z,100858.59
2018-12-17T12:21:54.625Z,100854.67
2018-12-17T12:24:25.208Z,100856.14
2018-12-17T12:26:55.249Z,100864.46
2018-12-17T12:29:25.363Z,100857.92
2018-12-17T12:31:55.445Z,100874.05
2018-12-17T12:34:25.203Z,100877.81
2018-12-17T12:36:55.338Z,100879.28
2018-12-17T12:39:25.154Z,100872.31
2018-12-17T12:41:55.121Z,100870.08
2018-12-17T12:44:25.712Z,100875.08
2018-12-17T12:46:55.537Z,100867.69
2018-12-17T12:49:25.423Z,100868.55
2018-12-17T12:51:55.542Z,100881.99
2018-12-17T12:54:25.460Z,100882.05
2018-12-17T12:56:55.371Z,100889.45
2018-12-17T12:59:25.251Z,100888.53
2018-12-17T13:01:55.099Z,100889.73
2018-12-17T13:04:25.854Z,100891.52
2018-12-17T13:06:56.133Z,100886.67
2018-12-17T13:09:26.362Z,100896.42
2018-12-17T13:11:56.405Z,100899.04
2018-12-17T13:14:31.056Z,100907.80
2018-12-17T13:17:05.102Z,100910.96
2018-12-17T13:19:35.311Z,100917.94
2018-12-17T13:22:05.333Z,100913.58
2018-12-17T13:24:35.147Z,100698.05
2018-12-17T13:27:05.129Z,100920.27
2018-12-17T13:29:35.198Z,100915.03
2018-12-17T13:32:05.341Z,100929.19
2018-12-17T13:34:35.481Z,100913.66
2018-12-17T13:37:05.289Z,100922.11
2018-12-17T13:39:35.947Z,100926.57
2018-12-17T13:42:05.990Z,100925.71
2018-12-17T13:44:36.104Z,100926.25
2018-12-17T13:47:06.362Z,100926.34
2018-12-17T13:49:36.206Z,100931.03
2018-12-17T13:52:12.350Z,100935.34
2018-12-17T13:54:42.606Z,100941.33
2018-12-17T13:57:12.645Z,100940.78
2018-12-17T13:59:42.967Z,100944.93
2018-12-17T14:02:13.091Z,100944.39
2018-12-17T14:04:43.289Z,100952.99
2018-12-17T14:07:13.876Z,100953.70
2018-12-17T14:12:37.410Z,100957.08
2018-12-17T14:15:07.337Z,100963.45
2018-12-17T14:17:40.095Z,100966.06
2018-12-17T14:23:03.795Z,100966.58
2018-12-17T14:25:33.749Z,100968.42
2018-12-17T14:28:03.518Z,100962.05
2018-12-17T14:30:33.425Z,100972.83
2018-12-17T14:33:03.392Z,100970.20
2018-12-17T14:35:33.625Z,100981.72
2018-12-17T14:38:03.944Z,100975.41
2018-12-17T14:40:34.008Z,100980.79
2018-12-17T14:43:04.256Z,100984.17
2018-12-17T14:45:34.431Z,100983.88
2018-12-17T14:48:13.777Z,100989.49
2018-12-17T14:50:43.597Z,100992.02
2018-12-17T14:53:13.474Z,101000.88
2018-12-17T14:55:43.432Z,100999.29
2018-12-17T14:58:13.566Z,100990.97
2018-12-17T15:00:43.513Z,100994.16
2018-12-17T15:03:13.478Z,101002.69
2018-12-17T15:05:43.442Z,101009.13
2018-12-17T15:08:13.540Z,101009.97
2018-12-17T15:10:43.469Z,101015.27
2018-12-17T15:13:13.663Z,101018.86
2018-12-17T15:15:43.432Z,101017.09
2018-12-17T15:18:13.366Z,101012.39
2018-12-17T15:20:43.448Z,101014.58
2018-12-17T15:23:13.667Z,101021.85
2018-12-17T15:25:43.767Z,101036.06
2018-12-17T15:28:13.793Z,101033.08
2018-12-17T15:30:43.818Z,101037.32
2018-12-17T15:33:15.362Z,101036.55
2018-12-17T15:35:48.105Z,101047.02
2018-12-17T15:38:18.382Z,101051.10
2018-12-17T15:40:48.348Z,101052.56
2018-12-17T15:43:18.396Z,101050.43
2018-12-17T15:45:48.538Z,101048.52
2018-12-17T15:48:18.567Z,101050.66
2018-12-17T15:50:49.900Z,101048.03
2018-12-17T15:53:19.956Z,101056.27
2018-12-17T15:55:50.112Z,101050.50
2018-12-17T15:58:20.308Z,101057.06
2018-12-17T16:00:50.378Z,101060.37
2018-12-17T16:03:21.221Z,101063.81
2018-12-17T16:05:51.334Z,101061.97
2018-12-17T16:08:21.488Z,101063.95
2018-12-17T16:10:52.394Z,101067.42
2018-12-17T16:13:22.191Z,101067.04
2018-12-17T16:15:52.426Z,101068.28
2018-12-17T16:18:22.412Z,101069.14
2018-12-17T16:20:52.798Z,101068.22
2018-12-17T16:23:22.733Z,101069.74
2018-12-17T16:25:53.575Z,101065.05
2018-12-17T16:28:27.637Z,101066.30
2018-12-17T16:30:58.255Z,101075.45
2018-12-17T16:33:30.090Z,101068.14
2018-12-17T16:36:00.607Z,101069.67
2018-12-17T16:38:30.682Z,101081.12
2018-12-17T16:41:00.673Z,101083.73
2018-12-17T16:43:30.587Z,101083.30
2018-12-17T16:46:00.523Z,101083.05
2018-12-17T16:48:30.356Z,101089.73
2018-12-17T16:51:00.422Z,101084.34
2018-12-17T16:53:34.506Z,101084.34
2018-12-17T16:56:04.507Z,101087.59
2018-12-17T16:58:34.768Z,101088.81
2018-12-17T17:01:05.158Z,101090.36
2018-12-17T17:03:35.449Z,101088.13
2018-12-17T17:06:05.732Z,101088.81
2018-12-17T17:08:36.507Z,101100.03
2018-12-17T17:11:06.892Z,101103.19
2018-12-17T17:13:37.153Z,101102.42
2018-12-17T17:16:07.348Z,101107.11
2018-12-17T17:18:37.517Z,101111.41
2018-12-17T17:21:07.615Z,101115.72
2018-12-17T17:23:37.760Z,101120.56
2018-12-17T17:26:07.583Z,101122.64
2018-12-17T17:28:37.526Z,101133.48
2018-12-17T17:31:08.340Z,101128.26
2018-12-17T17:33:38.863Z,101125.64
2018-12-17T17:36:09.738Z,101136.25
2018-12-17T17:38:39.826Z,101138.48
2018-12-17T17:41:09.722Z,101144.58
2018-12-17T17:43:39.578Z,101146.80
2018-12-17T17:46:09.526Z,101145.34
2018-12-17T17:48:39.535Z,101142.80
2018-12-17T17:51:09.606Z,101147.63
2018-12-17T17:53:39.540Z,101145.71
2018-12-17T17:56:09.592Z,101150.02
2018-12-17T17:58:39.874Z,101155.63
2018-12-17T18:01:09.937Z,101161.24
2018-12-17T18:03:40.556Z,101164.19
2018-12-17T18:06:16.230Z,101173.39
2018-12-17T18:08:42.314Z,101172.56
2018-12-17T18:11:12.258Z,101177.02
2018-12-17T18:13:42.326Z,101176.01
2018-12-17T18:16:12.273Z,101178.09
2018-12-17T18:18:42.308Z,101187.77
2018-12-17T18:21:12.645Z,101181.47
2018-12-17T18:23:42.699Z,101187.77
2018-12-17T18:26:12.578Z,101187.65
2018-12-17T18:28:42.443Z,101188.95
2018-12-17T18:31:12.473Z,101193.94
2018-12-17T18:33:42.593Z,101192.78
2018-12-17T18:36:12.516Z,101193.47
2018-12-17T18:38:42.416Z,101197.88
2018-12-17T18:41:12.537Z,101194.31
2018-12-17T18:43:42.401Z,101197.16
2018-12-17T18:46:12.322Z,101197.79
2018-12-17T18:48:42.285Z,101198.08
2018-12-17T18:51:12.668Z,101199.30
2018-12-17T18:56:31.000Z,101200.16
2018-12-17T18:59:01.226Z,101202.39
2018-12-17T19:01:31.107Z,101201.53
2018-12-17T19:04:01.317Z,101206.22
2018-12-17T19:06:31.668Z,101200.22
2018-12-17T19:09:01.456Z,101210.30
2018-12-17T19:11:31.452Z,101207.67
2018-12-17T19:14:01.621Z,101200.84
2018-12-17T19:16:32.294Z,101209.76
2018-12-17T19:19:02.676Z,101220.70
2018-12-17T19:21:32.600Z,101212.91
2018-12-17T19:24:02.440Z,101226.52
2018-12-17T19:26:32.802Z,101223.13
2018-12-17T19:29:04.093Z,101228.20
2018-12-17T19:31:34.599Z,101231.05
2018-12-17T19:34:05.119Z,101225.89
2018-12-17T19:36:35.404Z,101225.89
2018-12-17T19:39:08.191Z,101219.68
2018-12-17T19:41:38.585Z,101232.42
2018-12-17T19:44:08.364Z,101235.42
2018-12-17T19:46:38.640Z,101226.60
2018-12-17T19:49:08.487Z,101235.61
2018-12-17T19:51:38.436Z,101236.14
2018-12-17T19:54:08.411Z,101237.30
2018-12-17T19:56:38.535Z,101226.55
2018-12-17T19:59:08.368Z,101229.10
2018-12-17T20:01:38.444Z,101223.58
2018-12-17T20:04:08.348Z,101228.62
2018-12-17T20:06:38.394Z,101227.23
2018-12-17T20:09:09.151Z,101231.15
2018-12-17T20:11:39.213Z,101236.58
2018-12-17T20:14:09.324Z,101241.28
2018-12-17T20:16:39.464Z,101241.28
2018-12-17T20:19:09.305Z,101188.28
2018-12-17T20:21:39.142Z,101245.20
2018-12-17T20:24:09.364Z,101252.59
2018-12-17T20:26:39.162Z,101252.21
2018-12-17T20:29:09.474Z,101250.04
2018-12-17T20:31:39.568Z,101248.73
2018-12-17T20:34:09.767Z,101257.88
2018-12-17T20:36:39.593Z,101256.58
2018-12-17T20:39:10.049Z,101263.88
2018-12-17T20:41:40.551Z,101260.97
2018-12-17T20:44:10.569Z,101266.59
2018-12-17T20:46:40.523Z,101272.43
2018-12-17T20:49:10.987Z,101265.84
2018-12-17T20:51:41.678Z,101270.20
2018-12-17T20:54:11.621Z,101272.07
2018-12-17T20:56:41.775Z,101268.32
2018-12-17T20:59:11.845Z,101261.40
2018-12-17T21:01:41.723Z,101267.83
2018-12-17T21:04:11.893Z,101269.44
2018-12-17T21:06:42.145Z,101258.16
2018-12-17T21:09:13.741Z,101258.39
2018-12-17T21:11:43.998Z,101266.02
2018-12-17T21:14:14.068Z,101263.52
2018-12-17T21:16:44.317Z,101264.21
2018-12-17T21:19:14.545Z,101243.59
2018-12-17T21:21:44.872Z,101268.97
2018-12-17T21:24:15.379Z,101276.83
2018-12-17T21:26:45.885Z,101271.30
2018-12-17T21:29:16.098Z,101276.20
2018-12-17T21:31:46.465Z,101272.06
2018-12-17T21:34:16.569Z,101276.59
2018-12-17T21:36:46.596Z,101278.81
2018-12-17T21:39:16.531Z,101284.20
2018-12-17T21:41:46.481Z,101289.43
2018-12-17T21:44:16.320Z,101291.36
2018-12-17T21:46:46.396Z,101286.58
2018-12-17T21:49:16.161Z,101288.95
2018-12-17T21:51:46.456Z,101298.25
2018-12-17T21:54:16.848Z,101296.17
2018-12-17T21:56:50.847Z,101297.58
2018-12-17T21:59:21.613Z,101295.02
2018-12-17T22:01:53.634Z,101300.19
2018-12-17T22:04:24.653Z,101303.88
2018-12-17T22:06:54.605Z,101300.39
2018-12-17T22:09:24.462Z,101304.70
2018-12-17T22:11:54.388Z,101296.86
2018-12-17T22:14:24.271Z,101301.70
2018-12-17T22:16:54.099Z,101302.09
2018-12-17T22:19:24.526Z,101301.64
2018-12-17T22:21:54.524Z,101302.86
2018-12-17T22:24:24.495Z,101303.73
2018-12-17T22:26:54.582Z,101302.03
2018-12-17T22:29:24.454Z,101303.48
2018-12-17T22:31:54.572Z,101303.19
2018-12-17T22:34:24.604Z,101308.63
2018-12-17T22:36:54.730Z,101303.92
2018-12-17T22:39:24.597Z,101306.55
2018-12-17T22:41:54.642Z,101304.84
2018-12-17T22:44:24.936Z,101306.55
2018-12-17T22:46:54.829Z,101305.23
2018-12-17T22:49:24.766Z,101307.84
2018-12-17T22:51:55.122Z,101302.23
2018-12-17T22:54:34.436Z,101287.61
2018-12-17T22:57:04.562Z,101302.47
2018-12-17T22:59:35.604Z,101302.09
2018-12-17T23:02:05.805Z,101309.02
2018-12-17T23:04:35.709Z,101298.16
2018-12-17T23:07:05.643Z,101301.70
2018-12-17T23:09:45.952Z,101304.79
2018-12-17T23:12:26.653Z,101299.09
2018-12-17T23:15:07.091Z,101295.78
2018-12-17T23:17:41.546Z,101298.31
2018-12-17T23:20:11.905Z,101296.56
2018-12-17T23:22:44.928Z,101306.93
2018-12-17T23:25:15.366Z,101291.72
2018-12-17T23:27:50.687Z,101296.86
2018-12-17T23:30:23.191Z,101296.08
2018-12-17T23:32:53.350Z,101302.56
2018-12-17T23:35:23.486Z,101301.70
2018-12-17T23:37:53.548Z,101303.48
2018-12-17T23:40:23.843Z,101303.63
2018-12-17T23:42:53.677Z,101302.38
2018-12-17T23:45:23.572Z,101298.31
2018-12-17T23:47:53.566Z,101280.53
2018-12-17T23:50:23.500Z,101295.49
2018-12-17T23:52:53.578Z,101294.23
2018-12-17T23:55:23.466Z,101301.94
2018-12-17T23:57:53.212Z,101301.40
